sensor_id;sensor_type;location;lat;lon;timestamp;P1;durP1;ratioP1;P2;durP2;ratioP2
79122;SDS011;68526;44.600;26.032;2023-07-13T00:00:09;13.77;;;11.25;;
79122;SDS011;68526;44.600;26.032;2023-07-13T00:00:26;12.43;;;11.13;;
79122;SDS011;68526;44.600;26.032;2023-07-13T00:00:42;14.43;;;11.10;;
79122;SDS011;68526;44.600;26.032;2023-07-13T00:00:59;14.95;;;10.85;;
79122;SDS011;68526;44.600;26.032;2023-07-13T00:01:15;11.70;;;10.50;;
79122;SDS011;68526;44.600;26.032;2023-07-13T00:01:32;12.40;;;11.07;;
79122;SDS011;68526;44.600;26.032;2023-07-13T00:01:48;12.43;;;11.10;;
79122;SDS011;68526;44.600;26.032;2023-07-13T00:02:05;12.30;;;10.90;;
79122;SDS011;68526;44.600;26.032;2023-07-13T00:02:23;12.40;;;10.48;;
79122;SDS011;68526;44.600;26.032;2023-07-13T00:02:39;12.63;;;10.68;;
79122;SDS011;68526;44.600;26.032;2023-07-13T00:02:55;12.97;;;11.20;;
79122;SDS011;68526;44.600;26.032;2023-07-13T00:03:11;12.27;;;10.73;;
79122;SDS011;68526;44.600;26.032;2023-07-13T00:03:28;12.30;;;11.00;;
79122;SDS011;68526;44.600;26.032;2023-07-13T00:03:50;12.63;;;11.07;;
79122;SDS011;68526;44.600;26.032;2023-07-13T00:04:06;12.02;;;10.60;;
79122;SDS011;68526;44.600;26.032;2023-07-13T00:04:22;12.80;;;10.95;;
79122;SDS011;68526;44.600;26.032;2023-07-13T00:04:40;13.48;;;11.15;;
79122;SDS011;68526;44.600;26.032;2023-07-13T00:04:56;14.30;;;11.48;;
79122;SDS011;68526;44.600;26.032;2023-07-13T00:05:14;13.23;;;11.30;;
79122;SDS011;68526;44.600;26.032;2023-07-13T00:05:30;12.80;;;11.02;;
79122;SDS011;68526;44.600;26.032;2023-07-13T00:05:47;12.90;;;10.70;;
79122;SDS011;68526;44.600;26.032;2023-07-13T00:06:12;13.05;;;11.63;;
79122;SDS011;68526;44.600;26.032;2023-07-13T00:06:28;12.60;;;11.30;;
79122;SDS011;68526;44.600;26.032;2023-07-13T00:06:47;12.73;;;11.43;;
79122;SDS011;68526;44.600;26.032;2023-07-13T00:07:04;13.40;;;11.52;;
79122;SDS011;68526;44.600;26.032;2023-07-13T00:07:20;13.63;;;11.18;;
79122;SDS011;68526;44.600;26.032;2023-07-13T00:07:36;12.82;;;10.90;;
79122;SDS011;68526;44.600;26.032;2023-07-13T00:07:52;12.50;;;10.97;;
79122;SDS011;68526;44.600;26.032;2023-07-13T00:08:09;12.18;;;10.90;;
79122;SDS011;68526;44.600;26.032;2023-07-13T00:08:26;12.98;;;11.23;;
79122;SDS011;68526;44.600;26.032;2023-07-13T00:08:45;13.35;;;10.90;;
79122;SDS011;68526;44.600;26.032;2023-07-13T00:09:02;12.80;;;10.73;;
79122;SDS011;68526;44.600;26.032;2023-07-13T00:09:19;13.98;;;10.90;;
79122;SDS011;68526;44.600;26.032;2023-07-13T00:09:37;13.95;;;11.15;;
79122;SDS011;68526;44.600;26.032;2023-07-13T00:09:52;12.77;;;11.02;;
79122;SDS011;68526;44.600;26.032;2023-07-13T00:10:08;11.70;;;10.50;;
79122;SDS011;68526;44.600;26.032;2023-07-13T00:10:24;12.15;;;10.48;;
79122;SDS011;68526;44.600;26.032;2023-07-13T00:10:41;13.40;;;10.80;;
79122;SDS011;68526;44.600;26.032;2023-07-13T00:10:58;12.70;;;10.50;;
79122;SDS011;68526;44.600;26.032;2023-07-13T00:11:14;11.80;;;10.60;;
79122;SDS011;68526;44.600;26.032;2023-07-13T00:11:30;12.23;;;10.90;;
79122;SDS011;68526;44.600;26.032;2023-07-13T00:11:49;12.13;;;10.82;;
79122;SDS011;68526;44.600;26.032;2023-07-13T00:12:21;12.30;;;10.90;;
79122;SDS011;68526;44.600;26.032;2023-07-13T00:12:38;11.88;;;10.68;;
79122;SDS011;68526;44.600;26.032;2023-07-13T00:12:54;12.13;;;10.82;;
79122;SDS011;68526;44.600;26.032;2023-07-13T00:13:11;12.68;;;11.32;;
79122;SDS011;68526;44.600;26.032;2023-07-13T00:13:27;12.75;;;11.30;;
79122;SDS011;68526;44.600;26.032;2023-07-13T00:13:43;13.48;;;11.18;;
79122;SDS011;68526;44.600;26.032;2023-07-13T00:13:59;13.48;;;11.55;;
79122;SDS011;68526;44.600;26.032;2023-07-13T00:14:15;13.63;;;11.43;;
79122;SDS011;68526;44.600;26.032;2023-07-13T00:14:31;12.80;;;10.77;;
79122;SDS011;68526;44.600;26.032;2023-07-13T00:14:47;12.32;;;10.85;;
79122;SDS011;68526;44.600;26.032;2023-07-13T00:15:05;12.52;;;11.23;;
79122;SDS011;68526;44.600;26.032;2023-07-13T00:15:26;12.77;;;11.38;;
79122;SDS011;68526;44.600;26.032;2023-07-13T00:15:42;13.13;;;11.13;;
79122;SDS011;68526;44.600;26.032;2023-07-13T00:15:58;13.38;;;10.95;;
79122;SDS011;68526;44.600;26.032;2023-07-13T00:16:14;12.20;;;10.80;;
79122;SDS011;68526;44.600;26.032;2023-07-13T00:16:30;11.77;;;10.57;;
79122;SDS011;68526;44.600;26.032;2023-07-13T00:16:46;12.05;;;10.73;;
79122;SDS011;68526;44.600;26.032;2023-07-13T00:17:02;12.07;;;10.80;;
79122;SDS011;68526;44.600;26.032;2023-07-13T00:17:19;12.35;;;11.05;;
79122;SDS011;68526;44.600;26.032;2023-07-13T00:17:36;13.27;;;11.18;;
79122;SDS011;68526;44.600;26.032;2023-07-13T00:17:53;12.95;;;10.95;;
79122;SDS011;68526;44.600;26.032;2023-07-13T00:18:10;12.80;;;11.50;;
79122;SDS011;68526;44.600;26.032;2023-07-13T00:18:26;13.38;;;11.70;;
79122;SDS011;68526;44.600;26.032;2023-07-13T00:18:45;14.50;;;11.97;;
79122;SDS011;68526;44.600;26.032;2023-07-13T00:19:02;14.27;;;11.40;;
79122;SDS011;68526;44.600;26.032;2023-07-13T00:19:17;12.82;;;10.95;;
79122;SDS011;68526;44.600;26.032;2023-07-13T00:19:33;12.73;;;10.68;;
79122;SDS011;68526;44.600;26.032;2023-07-13T00:19:51;12.50;;;10.43;;
79122;SDS011;68526;44.600;26.032;2023-07-13T00:20:08;14.00;;;10.45;;
79122;SDS011;68526;44.600;26.032;2023-07-13T00:20:24;13.77;;;10.93;;
79122;SDS011;68526;44.600;26.032;2023-07-13T00:20:40;12.60;;;11.10;;
79122;SDS011;68526;44.600;26.032;2023-07-13T00:20:58;12.23;;;10.90;;
79122;SDS011;68526;44.600;26.032;2023-07-13T00:21:20;11.90;;;10.70;;
79122;SDS011;68526;44.600;26.032;2023-07-13T00:21:36;11.57;;;10.38;;
79122;SDS011;68526;44.600;26.032;2023-07-13T00:21:51;13.13;;;10.95;;
79122;SDS011;68526;44.600;26.032;2023-07-13T00:22:10;14.30;;;11.50;;
79122;SDS011;68526;44.600;26.032;2023-07-13T00:22:26;12.47;;;10.97;;
79122;SDS011;68526;44.600;26.032;2023-07-13T00:22:42;14.30;;;11.05;;
79122;SDS011;68526;44.600;26.032;2023-07-13T00:22:59;15.02;;;11.20;;
79122;SDS011;68526;44.600;26.032;2023-07-13T00:23:15;14.23;;;11.27;;
79122;SDS011;68526;44.600;26.032;2023-07-13T00:23:32;13.82;;;11.10;;
79122;SDS011;68526;44.600;26.032;2023-07-13T00:23:48;12.23;;;10.95;;
79122;SDS011;68526;44.600;26.032;2023-07-13T00:24:04;12.75;;;11.45;;
79122;SDS011;68526;44.600;26.032;2023-07-13T00:24:21;13.35;;;11.70;;
79122;SDS011;68526;44.600;26.032;2023-07-13T00:24:38;14.13;;;11.55;;
79122;SDS011;68526;44.600;26.032;2023-07-13T00:24:56;15.32;;;11.77;;
79122;SDS011;68526;44.600;26.032;2023-07-13T00:25:13;14.35;;;11.70;;
79122;SDS011;68526;44.600;26.032;2023-07-13T00:25:29;12.52;;;11.15;;
79122;SDS011;68526;44.600;26.032;2023-07-13T00:25:45;13.75;;;11.13;;
79122;SDS011;68526;44.600;26.032;2023-07-13T00:26:02;14.07;;;11.27;;
79122;SDS011;68526;44.600;26.032;2023-07-13T00:26:18;14.77;;;11.10;;
79122;SDS011;68526;44.600;26.032;2023-07-13T00:26:34;15.30;;;11.37;;
79122;SDS011;68526;44.600;26.032;2023-07-13T00:26:50;13.38;;;10.82;;
79122;SDS011;68526;44.600;26.032;2023-07-13T00:27:06;12.48;;;10.38;;
79122;SDS011;68526;44.600;26.032;2023-07-13T00:27:23;12.32;;;10.50;;
79122;SDS011;68526;44.600;26.032;2023-07-13T00:27:41;11.55;;;10.40;;
79122;SDS011;68526;44.600;26.032;2023-07-13T00:27:57;11.80;;;10.55;;
79122;SDS011;68526;44.600;26.032;2023-07-13T00:28:13;12.23;;;10.85;;
79122;SDS011;68526;44.600;26.032;2023-07-13T00:28:29;13.40;;;11.57;;
79122;SDS011;68526;44.600;26.032;2023-07-13T00:28:45;13.15;;;11.55;;
79122;SDS011;68526;44.600;26.032;2023-07-13T00:29:00;12.95;;;11.27;;
79122;SDS011;68526;44.600;26.032;2023-07-13T00:29:17;12.50;;;11.15;;
79122;SDS011;68526;44.600;26.032;2023-07-13T00:29:33;11.98;;;10.77;;
79122;SDS011;68526;44.600;26.032;2023-07-13T00:29:49;12.87;;;10.73;;
79122;SDS011;68526;44.600;26.032;2023-07-13T00:30:05;12.77;;;10.98;;
79122;SDS011;68526;44.600;26.032;2023-07-13T00:30:22;12.95;;;11.02;;
79122;SDS011;68526;44.600;26.032;2023-07-13T00:30:38;12.85;;;10.77;;
79122;SDS011;68526;44.600;26.032;2023-07-13T00:30:53;12.17;;;10.87;;
79122;SDS011;68526;44.600;26.032;2023-07-13T00:31:09;12.82;;;11.40;;
79122;SDS011;68526;44.600;26.032;2023-07-13T00:31:27;12.15;;;10.85;;
79122;SDS011;68526;44.600;26.032;2023-07-13T00:31:43;11.25;;;10.15;;
79122;SDS011;68526;44.600;26.032;2023-07-13T00:31:59;12.35;;;11.15;;
79122;SDS011;68526;44.600;26.032;2023-07-13T00:32:15;12.75;;;11.45;;
79122;SDS011;68526;44.600;26.032;2023-07-13T00:32:31;12.93;;;11.05;;
79122;SDS011;68526;44.600;26.032;2023-07-13T00:32:49;12.48;;;10.95;;
79122;SDS011;68526;44.600;26.032;2023-07-13T00:33:06;12.45;;;11.15;;
79122;SDS011;68526;44.600;26.032;2023-07-13T00:33:22;12.38;;;11.07;;
79122;SDS011;68526;44.600;26.032;2023-07-13T00:33:38;13.20;;;10.87;;
79122;SDS011;68526;44.600;26.032;2023-07-13T00:33:55;13.57;;;10.80;;
79122;SDS011;68526;44.600;26.032;2023-07-13T00:34:11;11.93;;;10.57;;
79122;SDS011;68526;44.600;26.032;2023-07-13T00:34:26;12.15;;;10.57;;
79122;SDS011;68526;44.600;26.032;2023-07-13T00:34:42;12.30;;;10.83;;
79122;SDS011;68526;44.600;26.032;2023-07-13T00:34:59;13.13;;;11.73;;
79122;SDS011;68526;44.600;26.032;2023-07-13T00:35:15;13.55;;;12.10;;
79122;SDS011;68526;44.600;26.032;2023-07-13T00:35:32;12.65;;;11.23;;
79122;SDS011;68526;44.600;26.032;2023-07-13T00:35:48;12.65;;;11.20;;
79122;SDS011;68526;44.600;26.032;2023-07-13T00:36:04;12.98;;;11.45;;
79122;SDS011;68526;44.600;26.032;2023-07-13T00:36:20;13.98;;;11.20;;
79122;SDS011;68526;44.600;26.032;2023-07-13T00:36:36;13.25;;;10.85;;
79122;SDS011;68526;44.600;26.032;2023-07-13T00:36:51;12.07;;;10.77;;
79122;SDS011;68526;44.600;26.032;2023-07-13T00:37:08;12.90;;;10.95;;
79122;SDS011;68526;44.600;26.032;2023-07-13T00:37:24;13.02;;;11.07;;
79122;SDS011;68526;44.600;26.032;2023-07-13T00:37:40;11.68;;;10.50;;
79122;SDS011;68526;44.600;26.032;2023-07-13T00:37:56;11.60;;;10.48;;
79122;SDS011;68526;44.600;26.032;2023-07-13T00:38:11;12.00;;;10.73;;
79122;SDS011;68526;44.600;26.032;2023-07-13T00:38:27;12.32;;;11.02;;
79122;SDS011;68526;44.600;26.032;2023-07-13T00:38:43;12.33;;;11.13;;
79122;SDS011;68526;44.600;26.032;2023-07-13T00:39:00;13.18;;;11.25;;
79122;SDS011;68526;44.600;26.032;2023-07-13T00:39:16;13.02;;;11.43;;
79122;SDS011;68526;44.600;26.032;2023-07-13T00:39:31;12.50;;;11.30;;
79122;SDS011;68526;44.600;26.032;2023-07-13T00:39:47;12.77;;;11.40;;
79122;SDS011;68526;44.600;26.032;2023-07-13T00:40:04;12.75;;;11.18;;
79122;SDS011;68526;44.600;26.032;2023-07-13T00:40:21;12.93;;;11.57;;
79122;SDS011;68526;44.600;26.032;2023-07-13T00:40:37;12.90;;;11.57;;
79122;SDS011;68526;44.600;26.032;2023-07-13T00:40:52;14.87;;;11.30;;
79122;SDS011;68526;44.600;26.032;2023-07-13T00:41:10;15.77;;;11.35;;
79122;SDS011;68526;44.600;26.032;2023-07-13T00:41:26;12.83;;;11.40;;
79122;SDS011;68526;44.600;26.032;2023-07-13T00:41:41;12.50;;;11.20;;
79122;SDS011;68526;44.600;26.032;2023-07-13T00:41:59;12.05;;;10.85;;
79122;SDS011;68526;44.600;26.032;2023-07-13T00:42:15;11.82;;;10.63;;
79122;SDS011;68526;44.600;26.032;2023-07-13T00:42:32;12.38;;;11.07;;
79122;SDS011;68526;44.600;26.032;2023-07-13T00:42:48;13.05;;;11.43;;
79122;SDS011;68526;44.600;26.032;2023-07-13T00:43:04;13.32;;;11.35;;
79122;SDS011;68526;44.600;26.032;2023-07-13T00:43:25;13.32;;;11.27;;
79122;SDS011;68526;44.600;26.032;2023-07-13T00:43:42;13.32;;;11.20;;
79122;SDS011;68526;44.600;26.032;2023-07-13T00:43:58;15.68;;;12.02;;
79122;SDS011;68526;44.600;26.032;2023-07-13T00:44:14;15.63;;;11.65;;
79122;SDS011;68526;44.600;26.032;2023-07-13T00:44:31;13.70;;;11.30;;
79122;SDS011;68526;44.600;26.032;2023-07-13T00:45:00;12.50;;;11.13;;
79122;SDS011;68526;44.600;26.032;2023-07-13T00:46:17;13.50;;;11.18;;
79122;SDS011;68526;44.600;26.032;2023-07-13T00:46:44;12.90;;;11.43;;
79122;SDS011;68526;44.600;26.032;2023-07-13T00:47:08;13.93;;;11.35;;
79122;SDS011;68526;44.600;26.032;2023-07-13T00:47:23;11.95;;;10.75;;
79122;SDS011;68526;44.600;26.032;2023-07-13T00:47:39;12.03;;;10.80;;
79122;SDS011;68526;44.600;26.032;2023-07-13T00:47:57;12.98;;;11.13;;
79122;SDS011;68526;44.600;26.032;2023-07-13T00:48:13;12.27;;;10.88;;
79122;SDS011;68526;44.600;26.032;2023-07-13T00:48:33;12.70;;;11.38;;
79122;SDS011;68526;44.600;26.032;2023-07-13T00:48:52;14.15;;;11.63;;
79122;SDS011;68526;44.600;26.032;2023-07-13T00:49:13;13.20;;;11.80;;
79122;SDS011;68526;44.600;26.032;2023-07-13T00:49:33;14.02;;;11.73;;
79122;SDS011;68526;44.600;26.032;2023-07-13T00:49:52;12.95;;;11.27;;
79122;SDS011;68526;44.600;26.032;2023-07-13T00:50:14;12.77;;;11.48;;
79122;SDS011;68526;44.600;26.032;2023-07-13T00:50:31;13.07;;;11.43;;
79122;SDS011;68526;44.600;26.032;2023-07-13T00:50:48;13.43;;;11.67;;
79122;SDS011;68526;44.600;26.032;2023-07-13T00:51:06;15.85;;;12.05;;
79122;SDS011;68526;44.600;26.032;2023-07-13T00:51:25;15.85;;;11.65;;
79122;SDS011;68526;44.600;26.032;2023-07-13T00:51:48;13.93;;;11.30;;
79122;SDS011;68526;44.600;26.032;2023-07-13T00:52:06;14.73;;;11.25;;
79122;SDS011;68526;44.600;26.032;2023-07-13T00:52:24;15.57;;;11.52;;
79122;SDS011;68526;44.600;26.032;2023-07-13T00:52:41;14.88;;;11.73;;
79122;SDS011;68526;44.600;26.032;2023-07-13T00:53:00;15.15;;;11.60;;
79122;SDS011;68526;44.600;26.032;2023-07-13T00:53:16;13.32;;;11.20;;
79122;SDS011;68526;44.600;26.032;2023-07-13T00:53:32;12.95;;;11.38;;
79122;SDS011;68526;44.600;26.032;2023-07-13T00:53:49;13.80;;;11.50;;
79122;SDS011;68526;44.600;26.032;2023-07-13T00:54:09;12.80;;;10.88;;
79122;SDS011;68526;44.600;26.032;2023-07-13T00:54:29;14.68;;;10.85;;
79122;SDS011;68526;44.600;26.032;2023-07-13T00:54:48;15.20;;;11.43;;
79122;SDS011;68526;44.600;26.032;2023-07-13T00:55:04;13.80;;;11.50;;
79122;SDS011;68526;44.600;26.032;2023-07-13T00:55:20;13.95;;;11.27;;
79122;SDS011;68526;44.600;26.032;2023-07-13T00:55:38;13.25;;;10.95;;
79122;SDS011;68526;44.600;26.032;2023-07-13T00:55:55;13.23;;;11.45;;
79122;SDS011;68526;44.600;26.032;2023-07-13T00:56:11;13.15;;;11.80;;
79122;SDS011;68526;44.600;26.032;2023-07-13T00:56:28;12.85;;;11.48;;
79122;SDS011;68526;44.600;26.032;2023-07-13T00:56:48;12.93;;;11.25;;
79122;SDS011;68526;44.600;26.032;2023-07-13T00:57:07;12.73;;;11.37;;
79122;SDS011;68526;44.600;26.032;2023-07-13T00:57:26;12.80;;;11.50;;
79122;SDS011;68526;44.600;26.032;2023-07-13T00:57:43;12.73;;;11.30;;
79122;SDS011;68526;44.600;26.032;2023-07-13T00:57:59;12.70;;;11.40;;
79122;SDS011;68526;44.600;26.032;2023-07-13T00:58:17;13.40;;;12.00;;
79122;SDS011;68526;44.600;26.032;2023-07-13T00:58:33;13.85;;;11.73;;
79122;SDS011;68526;44.600;26.032;2023-07-13T00:58:49;13.32;;;11.55;;
79122;SDS011;68526;44.600;26.032;2023-07-13T00:59:05;12.93;;;11.52;;
79122;SDS011;68526;44.600;26.032;2023-07-13T00:59:24;14.60;;;11.73;;
79122;SDS011;68526;44.600;26.032;2023-07-13T00:59:45;13.23;;;11.80;;
79122;SDS011;68526;44.600;26.032;2023-07-13T01:00:03;13.55;;;11.85;;
79122;SDS011;68526;44.600;26.032;2023-07-13T01:00:22;13.27;;;11.73;;
79122;SDS011;68526;44.600;26.032;2023-07-13T01:00:41;13.73;;;11.57;;
79122;SDS011;68526;44.600;26.032;2023-07-13T01:00:57;14.75;;;11.80;;
79122;SDS011;68526;44.600;26.032;2023-07-13T01:01:12;14.48;;;11.82;;
79122;SDS011;68526;44.600;26.032;2023-07-13T01:01:29;13.60;;;11.88;;
79122;SDS011;68526;44.600;26.032;2023-07-13T01:01:45;15.35;;;12.10;;
79122;SDS011;68526;44.600;26.032;2023-07-13T01:02:01;14.90;;;11.80;;
79122;SDS011;68526;44.600;26.032;2023-07-13T01:02:18;13.60;;;12.20;;
79122;SDS011;68526;44.600;26.032;2023-07-13T01:02:34;13.30;;;12.00;;
79122;SDS011;68526;44.600;26.032;2023-07-13T01:02:52;14.98;;;11.85;;
79122;SDS011;68526;44.600;26.032;2023-07-13T01:03:09;15.77;;;12.18;;
79122;SDS011;68526;44.600;26.032;2023-07-13T01:03:26;13.32;;;11.93;;
79122;SDS011;68526;44.600;26.032;2023-07-13T01:03:42;13.07;;;11.68;;
79122;SDS011;68526;44.600;26.032;2023-07-13T01:03:59;14.20;;;11.75;;
79122;SDS011;68526;44.600;26.032;2023-07-13T01:04:14;14.80;;;12.10;;
79122;SDS011;68526;44.600;26.032;2023-07-13T01:04:30;14.55;;;12.00;;
79122;SDS011;68526;44.600;26.032;2023-07-13T01:04:46;15.50;;;11.73;;
79122;SDS011;68526;44.600;26.032;2023-07-13T01:05:04;13.70;;;11.52;;
79122;SDS011;68526;44.600;26.032;2023-07-13T01:05:26;13.18;;;11.77;;
79122;SDS011;68526;44.600;26.032;2023-07-13T01:05:41;13.45;;;12.05;;
79122;SDS011;68526;44.600;26.032;2023-07-13T01:05:58;13.15;;;11.77;;
79122;SDS011;68526;44.600;26.032;2023-07-13T01:06:13;13.77;;;11.75;;
79122;SDS011;68526;44.600;26.032;2023-07-13T01:06:29;15.33;;;12.20;;
79122;SDS011;68526;44.600;26.032;2023-07-13T01:06:45;13.57;;;12.15;;
79122;SDS011;68526;44.600;26.032;2023-07-13T01:07:03;13.60;;;12.23;;
79122;SDS011;68526;44.600;26.032;2023-07-13T01:07:20;13.98;;;12.50;;
79122;SDS011;68526;44.600;26.032;2023-07-13T01:07:35;13.33;;;12.00;;
79122;SDS011;68526;44.600;26.032;2023-07-13T01:07:51;13.02;;;11.73;;
79122;SDS011;68526;44.600;26.032;2023-07-13T01:08:07;12.82;;;11.52;;
79122;SDS011;68526;44.600;26.032;2023-07-13T01:08:23;13.77;;;12.02;;
79122;SDS011;68526;44.600;26.032;2023-07-13T01:08:39;14.25;;;12.55;;
79122;SDS011;68526;44.600;26.032;2023-07-13T01:08:56;13.82;;;12.23;;
79122;SDS011;68526;44.600;26.032;2023-07-13T01:09:14;14.00;;;12.00;;
79122;SDS011;68526;44.600;26.032;2023-07-13T01:09:31;13.88;;;12.20;;
79122;SDS011;68526;44.600;26.032;2023-07-13T01:09:47;15.68;;;12.07;;
79122;SDS011;68526;44.600;26.032;2023-07-13T01:10:03;13.90;;;11.52;;
79122;SDS011;68526;44.600;26.032;2023-07-13T01:10:21;12.95;;;11.65;;
79122;SDS011;68526;44.600;26.032;2023-07-13T01:10:37;13.13;;;11.68;;
79122;SDS011;68526;44.600;26.032;2023-07-13T01:10:54;14.02;;;11.75;;
79122;SDS011;68526;44.600;26.032;2023-07-13T01:11:13;14.18;;;12.63;;
79122;SDS011;68526;44.600;26.032;2023-07-13T01:11:35;15.07;;;13.18;;
79122;SDS011;68526;44.600;26.032;2023-07-13T01:11:51;14.55;;;12.48;;
79122;SDS011;68526;44.600;26.032;2023-07-13T01:12:08;13.10;;;11.70;;
79122;SDS011;68526;44.600;26.032;2023-07-13T01:12:24;13.35;;;11.93;;
79122;SDS011;68526;44.600;26.032;2023-07-13T01:12:40;13.85;;;12.35;;
79122;SDS011;68526;44.600;26.032;2023-07-13T01:12:56;13.30;;;11.90;;
79122;SDS011;68526;44.600;26.032;2023-07-13T01:13:11;14.48;;;11.80;;
79122;SDS011;68526;44.600;26.032;2023-07-13T01:13:27;16.02;;;12.15;;
79122;SDS011;68526;44.600;26.032;2023-07-13T01:13:43;13.57;;;11.73;;
79122;SDS011;68526;44.600;26.032;2023-07-13T01:14:00;13.00;;;11.60;;
79122;SDS011;68526;44.600;26.032;2023-07-13T01:14:16;13.50;;;12.10;;
79122;SDS011;68526;44.600;26.032;2023-07-13T01:14:32;13.52;;;12.13;;
79122;SDS011;68526;44.600;26.032;2023-07-13T01:14:48;13.35;;;11.82;;
79122;SDS011;68526;44.600;26.032;2023-07-13T01:15:04;13.23;;;11.83;;
79122;SDS011;68526;44.600;26.032;2023-07-13T01:15:58;16.25;;;11.73;;
79122;SDS011;68526;44.600;26.032;2023-07-13T01:16:21;14.65;;;11.32;;
79122;SDS011;68526;44.600;26.032;2023-07-13T01:16:40;13.30;;;11.15;;
79122;SDS011;68526;44.600;26.032;2023-07-13T01:16:58;12.82;;;11.52;;
79122;SDS011;68526;44.600;26.032;2023-07-13T01:17:15;13.15;;;11.68;;
79122;SDS011;68526;44.600;26.032;2023-07-13T01:17:34;13.15;;;11.43;;
79122;SDS011;68526;44.600;26.032;2023-07-13T01:17:50;13.70;;;11.45;;
79122;SDS011;68526;44.600;26.032;2023-07-13T01:18:07;12.77;;;11.32;;
79122;SDS011;68526;44.600;26.032;2023-07-13T01:18:35;13.32;;;11.90;;
79122;SDS011;68526;44.600;26.032;2023-07-13T01:18:51;16.15;;;11.80;;
79122;SDS011;68526;44.600;26.032;2023-07-13T01:19:08;15.55;;;12.10;;
79122;SDS011;68526;44.600;26.032;2023-07-13T01:19:36;12.80;;;11.40;;
79122;SDS011;68526;44.600;26.032;2023-07-13T01:19:56;12.20;;;11.00;;
79122;SDS011;68526;44.600;26.032;2023-07-13T01:20:12;12.60;;;11.27;;
79122;SDS011;68526;44.600;26.032;2023-07-13T01:20:28;14.57;;;11.63;;
79122;SDS011;68526;44.600;26.032;2023-07-13T01:20:49;14.02;;;11.70;;
79122;SDS011;68526;44.600;26.032;2023-07-13T01:21:06;14.98;;;11.60;;
79122;SDS011;68526;44.600;26.032;2023-07-13T01:21:23;15.27;;;11.63;;
79122;SDS011;68526;44.600;26.032;2023-07-13T01:21:39;15.13;;;11.45;;
79122;SDS011;68526;44.600;26.032;2023-07-13T01:21:57;14.18;;;11.80;;
79122;SDS011;68526;44.600;26.032;2023-07-13T01:22:14;14.90;;;11.60;;
79122;SDS011;68526;44.600;26.032;2023-07-13T01:22:32;14.35;;;11.15;;
79122;SDS011;68526;44.600;26.032;2023-07-13T01:22:48;12.83;;;11.40;;
79122;SDS011;68526;44.600;26.032;2023-07-13T01:23:06;13.68;;;11.68;;
79122;SDS011;68526;44.600;26.032;2023-07-13T01:23:24;15.23;;;12.02;;
79122;SDS011;68526;44.600;26.032;2023-07-13T01:23:40;14.32;;;11.40;;
79122;SDS011;68526;44.600;26.032;2023-07-13T01:23:56;12.80;;;10.70;;
79122;SDS011;68526;44.600;26.032;2023-07-13T01:24:12;12.45;;;11.20;;
79122;SDS011;68526;44.600;26.032;2023-07-13T01:24:28;12.87;;;11.57;;
79122;SDS011;68526;44.600;26.032;2023-07-13T01:24:46;12.95;;;11.50;;
79122;SDS011;68526;44.600;26.032;2023-07-13T01:25:03;13.27;;;11.88;;
79122;SDS011;68526;44.600;26.032;2023-07-13T01:25:20;12.85;;;11.52;;
79122;SDS011;68526;44.600;26.032;2023-07-13T01:25:36;12.35;;;11.05;;
79122;SDS011;68526;44.600;26.032;2023-07-13T01:25:53;12.88;;;11.57;;
79122;SDS011;68526;44.600;26.032;2023-07-13T01:26:10;13.52;;;12.13;;
79122;SDS011;68526;44.600;26.032;2023-07-13T01:26:27;13.95;;;11.90;;
79122;SDS011;68526;44.600;26.032;2023-07-13T01:26:43;13.45;;;11.25;;
79122;SDS011;68526;44.600;26.032;2023-07-13T01:26:58;12.70;;;11.32;;
79122;SDS011;68526;44.600;26.032;2023-07-13T01:27:15;12.70;;;11.40;;
79122;SDS011;68526;44.600;26.032;2023-07-13T01:27:35;12.95;;;11.60;;
79122;SDS011;68526;44.600;26.032;2023-07-13T01:27:51;12.57;;;11.27;;
79122;SDS011;68526;44.600;26.032;2023-07-13T01:28:07;12.90;;;11.20;;
79122;SDS011;68526;44.600;26.032;2023-07-13T01:28:25;12.82;;;11.15;;
79122;SDS011;68526;44.600;26.032;2023-07-13T01:28:43;14.07;;;11.57;;
79122;SDS011;68526;44.600;26.032;2023-07-13T01:28:59;15.38;;;11.65;;
79122;SDS011;68526;44.600;26.032;2023-07-13T01:29:14;16.43;;;11.97;;
79122;SDS011;68526;44.600;26.032;2023-07-13T01:29:30;15.00;;;12.05;;
79122;SDS011;68526;44.600;26.032;2023-07-13T01:29:47;15.15;;;12.10;;
79122;SDS011;68526;44.600;26.032;2023-07-13T01:30:03;14.70;;;12.23;;
79122;SDS011;68526;44.600;26.032;2023-07-13T01:30:19;13.07;;;11.68;;
79122;SDS011;68526;44.600;26.032;2023-07-13T01:30:35;13.65;;;11.55;;
79122;SDS011;68526;44.600;26.032;2023-07-13T01:30:53;15.60;;;11.43;;
79122;SDS011;68526;44.600;26.032;2023-07-13T01:31:10;15.13;;;11.77;;
79122;SDS011;68526;44.600;26.032;2023-07-13T01:31:27;14.75;;;11.77;;
79122;SDS011;68526;44.600;26.032;2023-07-13T01:31:42;16.33;;;12.00;;
79122;SDS011;68526;44.600;26.032;2023-07-13T01:31:59;15.27;;;11.90;;
79122;SDS011;68526;44.600;26.032;2023-07-13T01:32:16;12.60;;;11.27;;
79122;SDS011;68526;44.600;26.032;2023-07-13T01:32:38;12.95;;;11.65;;
79122;SDS011;68526;44.600;26.032;2023-07-13T01:32:56;14.40;;;12.32;;
79122;SDS011;68526;44.600;26.032;2023-07-13T01:33:13;14.80;;;12.20;;
79122;SDS011;68526;44.600;26.032;2023-07-13T01:33:30;13.68;;;12.27;;
79122;SDS011;68526;44.600;26.032;2023-07-13T01:33:45;13.77;;;12.33;;
79122;SDS011;68526;44.600;26.032;2023-07-13T01:34:01;15.90;;;12.30;;
79122;SDS011;68526;44.600;26.032;2023-07-13T01:34:19;15.23;;;12.38;;
79122;SDS011;68526;44.600;26.032;2023-07-13T01:34:35;13.85;;;12.38;;
79122;SDS011;68526;44.600;26.032;2023-07-13T01:34:51;13.88;;;12.35;;
79122;SDS011;68526;44.600;26.032;2023-07-13T01:35:09;14.35;;;12.85;;
79122;SDS011;68526;44.600;26.032;2023-07-13T01:35:27;14.52;;;12.85;;
79122;SDS011;68526;44.600;26.032;2023-07-13T01:35:43;14.77;;;12.57;;
79122;SDS011;68526;44.600;26.032;2023-07-13T01:36:01;13.43;;;12.02;;
79122;SDS011;68526;44.600;26.032;2023-07-13T01:36:18;13.63;;;12.23;;
79122;SDS011;68526;44.600;26.032;2023-07-13T01:36:36;14.25;;;12.48;;
79122;SDS011;68526;44.600;26.032;2023-07-13T01:36:52;16.63;;;12.70;;
79122;SDS011;68526;44.600;26.032;2023-07-13T01:37:09;16.17;;;12.63;;
79122;SDS011;68526;44.600;26.032;2023-07-13T01:37:25;13.68;;;12.30;;
79122;SDS011;68526;44.600;26.032;2023-07-13T01:37:42;14.02;;;12.63;;
79122;SDS011;68526;44.600;26.032;2023-07-13T01:38:00;13.95;;;12.50;;
79122;SDS011;68526;44.600;26.032;2023-07-13T01:38:17;14.32;;;12.48;;
79122;SDS011;68526;44.600;26.032;2023-07-13T01:38:35;14.50;;;13.00;;
79122;SDS011;68526;44.600;26.032;2023-07-13T01:38:51;14.52;;;13.05;;
79122;SDS011;68526;44.600;26.032;2023-07-13T01:39:07;14.68;;;13.07;;
79122;SDS011;68526;44.600;26.032;2023-07-13T01:39:23;14.63;;;12.95;;
79122;SDS011;68526;44.600;26.032;2023-07-13T01:39:39;14.27;;;12.60;;
79122;SDS011;68526;44.600;26.032;2023-07-13T01:39:55;14.48;;;12.68;;
79122;SDS011;68526;44.600;26.032;2023-07-13T01:40:11;14.35;;;12.68;;